Belt, Montana
Current Conditions -  °F | °C
As of 5:56 AM on Saturday 25 Oct 2014 (Local Time) from KGFA Reporting Station
Clear Clear  
Wind Chill: 34°   Ceiling: Unl
Heat Index: 39°   Visibility: 10mi
Dew Point: 37°   Wind: 7mph
Humidity: 92%   Direction: 80°E
Pressure: 30.01"   Gusts: NA
Location:  47.39°N, 110.93°W
Report Text: KGFA 251156Z AUTO 08006KT 10SM CLR 04/03 A3001 RMK AO2 SLP180 T00380026 10062 20038
Loading
Personal Weather Stations






























Interactive Weather Map
Tropical Storm Tracking
New forecast layout! Learn more

10-Day Weather Forecast

Advertisements
Track Severe Weather on mobile